sensor_id;sensor_type;location;lat;lon;timestamp;pressure;altitude;pressure_sealevel;temperature;humidity
64616;BME280;51027;42.162;24.754;2023-01-28T00:02:01;99008.53;;;3.64;95.61
64616;BME280;51027;42.162;24.754;2023-01-28T00:04:26;98999.19;;;3.56;96.42
64616;BME280;51027;42.162;24.754;2023-01-28T00:06:52;98961.31;;;3.42;95.17
64616;BME280;51027;42.162;24.754;2023-01-28T00:09:18;99006.06;;;3.60;94.92
64616;BME280;51027;42.162;24.754;2023-01-28T00:11:43;98996.03;;;3.41;95.98
64616;BME280;51027;42.162;24.754;2023-01-28T00:14:10;98988.34;;;3.35;96.16
64616;BME280;51027;42.162;24.754;2023-01-28T00:16:36;99005.41;;;3.50;96.18
64616;BME280;51027;42.162;24.754;2023-01-28T00:19:02;99002.16;;;3.39;96.86
64616;BME280;51027;42.162;24.754;2023-01-28T00:21:27;99014.22;;;3.43;97.32
64616;BME280;51027;42.162;24.754;2023-01-28T00:23:54;99003.72;;;3.47;97.26
64616;BME280;51027;42.162;24.754;2023-01-28T00:26:21;99013.25;;;3.47;97.25
64616;BME280;51027;42.162;24.754;2023-01-28T00:28:47;99007.13;;;3.50;96.46
64616;BME280;51027;42.162;24.754;2023-01-28T00:31:23;99021.06;;;3.47;95.74
64616;BME280;51027;42.162;24.754;2023-01-28T00:33:50;99025.59;;;3.39;96.53
64616;BME280;51027;42.162;24.754;2023-01-28T00:36:16;99025.66;;;3.34;96.15
64616;BME280;51027;42.162;24.754;2023-01-28T00:38:42;99020.38;;;3.39;96.58
64616;BME280;51027;42.162;24.754;2023-01-28T00:41:13;99039.16;;;3.53;95.76
64616;BME280;51027;42.162;24.754;2023-01-28T00:43:39;99043.69;;;3.43;96.61
64616;BME280;51027;42.162;24.754;2023-01-28T00:46:07;99040.16;;;3.47;95.90
64616;BME280;51027;42.162;24.754;2023-01-28T00:48:34;99051.66;;;3.36;96.17
64616;BME280;51027;42.162;24.754;2023-01-28T00:50:59;99044.66;;;3.39;96.28
64616;BME280;51027;42.162;24.754;2023-01-28T00:53:25;99050.31;;;3.60;96.60
64616;BME280;51027;42.162;24.754;2023-01-28T00:55:51;99059.25;;;3.48;96.60
64616;BME280;51027;42.162;24.754;2023-01-28T00:58:17;99051.72;;;3.33;97.95
64616;BME280;51027;42.162;24.754;2023-01-28T01:00:42;99057.66;;;3.41;97.35
64616;BME280;51027;42.162;24.754;2023-01-28T01:03:08;99040.56;;;3.28;97.32
64616;BME280;51027;42.162;24.754;2023-01-28T01:05:33;99038.78;;;3.30;97.54
64616;BME280;51027;42.162;24.754;2023-01-28T01:07:59;99054.44;;;3.28;97.90
64616;BME280;51027;42.162;24.754;2023-01-28T01:10:25;99066.50;;;3.32;97.51
64616;BME280;51027;42.162;24.754;2023-01-28T01:12:50;99068.13;;;3.38;97.86
64616;BME280;51027;42.162;24.754;2023-01-28T01:15:17;99057.56;;;3.44;97.56
64616;BME280;51027;42.162;24.754;2023-01-28T01:17:47;99057.81;;;3.32;97.81
64616;BME280;51027;42.162;24.754;2023-01-28T01:20:24;99057.25;;;3.17;97.65
64616;BME280;51027;42.162;24.754;2023-01-28T01:22:50;99058.78;;;3.26;97.83
64616;BME280;51027;42.162;24.754;2023-01-28T01:25:17;99048.19;;;3.35;97.66
64616;BME280;51027;42.162;24.754;2023-01-28T01:27:43;99053.50;;;3.31;97.40
64616;BME280;51027;42.162;24.754;2023-01-28T01:30:10;99060.34;;;3.35;96.92
64616;BME280;51027;42.162;24.754;2023-01-28T01:32:36;99051.72;;;3.33;96.91
64616;BME280;51027;42.162;24.754;2023-01-28T01:35:04;99062.00;;;3.40;96.52
64616;BME280;51027;42.162;24.754;2023-01-28T01:37:33;99064.63;;;3.39;96.54
64616;BME280;51027;42.162;24.754;2023-01-28T01:39:59;99063.03;;;3.32;96.00
64616;BME280;51027;42.162;24.754;2023-01-28T01:42:26;99073.38;;;3.35;96.35
64616;BME280;51027;42.162;24.754;2023-01-28T01:47:48;99079.06;;;3.54;95.97
64616;BME280;51027;42.162;24.754;2023-01-28T01:50:27;99073.34;;;3.38;95.89
64616;BME280;51027;42.162;24.754;2023-01-28T01:52:58;99075.72;;;3.47;95.50
64616;BME280;51027;42.162;24.754;2023-01-28T01:55:26;99070.47;;;3.50;95.19
64616;BME280;51027;42.162;24.754;2023-01-28T01:57:54;99094.81;;;3.47;95.54
64616;BME280;51027;42.162;24.754;2023-01-28T02:00:20;99057.25;;;3.16;95.13
64616;BME280;51027;42.162;24.754;2023-01-28T02:02:47;99083.84;;;3.32;95.80
64616;BME280;51027;42.162;24.754;2023-01-28T02:05:16;99100.22;;;3.38;95.52
64616;BME280;51027;42.162;24.754;2023-01-28T02:07:44;99088.13;;;3.34;95.43
64616;BME280;51027;42.162;24.754;2023-01-28T02:10:10;99061.50;;;3.22;94.90
64616;BME280;51027;42.162;24.754;2023-01-28T02:12:41;99093.94;;;3.47;94.40
64616;BME280;51027;42.162;24.754;2023-01-28T02:15:12;99106.09;;;3.46;94.73
64616;BME280;51027;42.162;24.754;2023-01-28T02:17:39;99106.91;;;3.50;94.70
64616;BME280;51027;42.162;24.754;2023-01-28T02:20:14;99117.19;;;3.56;93.43
64616;BME280;51027;42.162;24.754;2023-01-28T02:25:42;99108.56;;;3.54;93.29
64616;BME280;51027;42.162;24.754;2023-01-28T02:31:29;99118.03;;;3.58;92.72
64616;BME280;51027;42.162;24.754;2023-01-28T02:36:40;99119.78;;;3.56;92.50
64616;BME280;51027;42.162;24.754;2023-01-28T02:39:23;99120.75;;;3.52;92.50
64616;BME280;51027;42.162;24.754;2023-01-28T02:41:56;99118.91;;;3.57;92.30
64616;BME280;51027;42.162;24.754;2023-01-28T02:44:24;99111.03;;;3.60;91.81
64616;BME280;51027;42.162;24.754;2023-01-28T02:46:51;99125.88;;;3.55;92.39
64616;BME280;51027;42.162;24.754;2023-01-28T02:49:43;99131.09;;;3.55;91.59
64616;BME280;51027;42.162;24.754;2023-01-28T02:55:38;99129.38;;;3.54;91.46
64616;BME280;51027;42.162;24.754;2023-01-28T03:00:49;99134.69;;;3.50;91.09
64616;BME280;51027;42.162;24.754;2023-01-28T03:05:54;99133.94;;;3.43;91.42
64616;BME280;51027;42.162;24.754;2023-01-28T03:08:46;99136.47;;;3.47;91.59
64616;BME280;51027;42.162;24.754;2023-01-28T03:11:35;99143.31;;;3.52;90.79
64616;BME280;51027;42.162;24.754;2023-01-28T03:14:21;99117.50;;;3.41;90.88
64616;BME280;51027;42.162;24.754;2023-01-28T03:17:11;99139.72;;;3.57;89.59
64616;BME280;51027;42.162;24.754;2023-01-28T03:19:58;99144.94;;;3.57;90.51
64616;BME280;51027;42.162;24.754;2023-01-28T03:22:45;99146.88;;;3.46;90.03
64616;BME280;51027;42.162;24.754;2023-01-28T03:25:32;99129.06;;;3.28;90.67
64616;BME280;51027;42.162;24.754;2023-01-28T03:28:18;99143.22;;;3.56;89.20
64616;BME280;51027;42.162;24.754;2023-01-28T03:31:08;99139.25;;;3.38;89.60
64616;BME280;51027;42.162;24.754;2023-01-28T03:33:53;99150.28;;;3.51;89.02
64616;BME280;51027;42.162;24.754;2023-01-28T03:36:38;99152.00;;;3.52;88.61
64616;BME280;51027;42.162;24.754;2023-01-28T03:39:28;99151.91;;;3.55;88.50
64616;BME280;51027;42.162;24.754;2023-01-28T03:42:06;99152.84;;;3.53;88.91
64616;BME280;51027;42.162;24.754;2023-01-28T03:44:32;99152.13;;;3.44;88.88
64616;BME280;51027;42.162;24.754;2023-01-28T03:47:18;99151.41;;;3.38;88.34
64616;BME280;51027;42.162;24.754;2023-01-28T03:49:46;99157.50;;;3.35;89.09
64616;BME280;51027;42.162;24.754;2023-01-28T03:52:15;99161.63;;;3.49;88.70
64616;BME280;51027;42.162;24.754;2023-01-28T03:54:41;99146.22;;;3.36;88.52
64616;BME280;51027;42.162;24.754;2023-01-28T03:57:06;99144.63;;;3.29;88.44
64616;BME280;51027;42.162;24.754;2023-01-28T03:59:32;99162.69;;;3.38;88.21
64616;BME280;51027;42.162;24.754;2023-01-28T04:01:58;99162.03;;;3.26;88.75
64616;BME280;51027;42.162;24.754;2023-01-28T04:04:23;99168.22;;;3.20;89.26
64616;BME280;51027;42.162;24.754;2023-01-28T04:06:53;99170.72;;;3.25;89.68
64616;BME280;51027;42.162;24.754;2023-01-28T04:09:22;99172.44;;;3.26;89.40
64616;BME280;51027;42.162;24.754;2023-01-28T04:11:48;99167.41;;;3.15;89.83
64616;BME280;51027;42.162;24.754;2023-01-28T04:14:15;99166.53;;;3.17;90.68
64616;BME280;51027;42.162;24.754;2023-01-28T04:16:41;99165.88;;;3.05;90.67
64616;BME280;51027;42.162;24.754;2023-01-28T04:19:08;99169.13;;;3.17;90.05
64616;BME280;51027;42.162;24.754;2023-01-28T04:21:34;99165.84;;;3.08;90.60
64616;BME280;51027;42.162;24.754;2023-01-28T04:23:59;99163.00;;;3.20;90.48
64616;BME280;51027;42.162;24.754;2023-01-28T04:26:26;99172.69;;;3.12;90.70
64616;BME280;51027;42.162;24.754;2023-01-28T04:28:51;99170.69;;;3.26;90.75
64616;BME280;51027;42.162;24.754;2023-01-28T04:31:17;99178.66;;;3.18;89.74
64616;BME280;51027;42.162;24.754;2023-01-28T04:33:42;99177.75;;;3.20;89.74
64616;BME280;51027;42.162;24.754;2023-01-28T04:36:08;99181.94;;;3.27;90.19
64616;BME280;51027;42.162;24.754;2023-01-28T04:38:33;99176.06;;;3.18;89.98
64616;BME280;51027;42.162;24.754;2023-01-28T04:40:59;99179.59;;;3.13;89.66
64616;BME280;51027;42.162;24.754;2023-01-28T04:43:24;99182.16;;;3.17;90.49
64616;BME280;51027;42.162;24.754;2023-01-28T04:45:49;99186.69;;;3.05;90.34
64616;BME280;51027;42.162;24.754;2023-01-28T04:48:15;99167.09;;;2.84;91.01
64616;BME280;51027;42.162;24.754;2023-01-28T04:50:42;99189.38;;;3.00;91.02
64616;BME280;51027;42.162;24.754;2023-01-28T04:53:08;99198.78;;;3.07;90.23
64616;BME280;51027;42.162;24.754;2023-01-28T04:55:34;99208.34;;;3.05;91.07
64616;BME280;51027;42.162;24.754;2023-01-28T04:57:59;99214.25;;;3.15;91.50
64616;BME280;51027;42.162;24.754;2023-01-28T05:00:25;99215.34;;;3.02;90.67
64616;BME280;51027;42.162;24.754;2023-01-28T05:02:50;99221.47;;;2.99;91.11
64616;BME280;51027;42.162;24.754;2023-01-28T05:05:15;99219.56;;;3.10;90.81
64616;BME280;51027;42.162;24.754;2023-01-28T05:07:41;99229.25;;;3.01;91.30
64616;BME280;51027;42.162;24.754;2023-01-28T05:10:07;99209.34;;;2.98;90.57
64616;BME280;51027;42.162;24.754;2023-01-28T05:12:32;99232.50;;;3.13;90.53
64616;BME280;51027;42.162;24.754;2023-01-28T05:14:58;99233.38;;;3.12;90.30
64616;BME280;51027;42.162;24.754;2023-01-28T05:17:27;99207.53;;;3.03;90.43
64616;BME280;51027;42.162;24.754;2023-01-28T05:19:53;99220.41;;;3.11;89.90
64616;BME280;51027;42.162;24.754;2023-01-28T05:22:18;99231.31;;;3.33;89.22
64616;BME280;51027;42.162;24.754;2023-01-28T05:24:44;99238.38;;;3.25;89.50
64616;BME280;51027;42.162;24.754;2023-01-28T05:27:10;99228.97;;;3.17;89.93
64616;BME280;51027;42.162;24.754;2023-01-28T05:29:35;99238.38;;;3.25;89.98
64616;BME280;51027;42.162;24.754;2023-01-28T05:32:01;99239.22;;;3.25;89.01
64616;BME280;51027;42.162;24.754;2023-01-28T05:34:26;99234.13;;;3.21;89.67
64616;BME280;51027;42.162;24.754;2023-01-28T05:36:51;99241.72;;;3.33;89.92
64616;BME280;51027;42.162;24.754;2023-01-28T05:39:17;99256.47;;;3.32;89.08
64616;BME280;51027;42.162;24.754;2023-01-28T05:41:42;99246.00;;;3.35;90.54
64616;BME280;51027;42.162;24.754;2023-01-28T05:44:07;99257.41;;;3.27;90.27
64616;BME280;51027;42.162;24.754;2023-01-28T05:46:33;99253.97;;;3.28;90.43
64616;BME280;51027;42.162;24.754;2023-01-28T05:48:58;99266.00;;;3.33;90.55
64616;BME280;51027;42.162;24.754;2023-01-28T05:51:24;99262.53;;;3.33;89.89
64616;BME280;51027;42.162;24.754;2023-01-28T05:53:49;99265.94;;;3.38;89.60
64616;BME280;51027;42.162;24.754;2023-01-28T05:56:14;99247.22;;;3.14;90.00
64616;BME280;51027;42.162;24.754;2023-01-28T05:58:40;99241.19;;;3.12;89.90
64616;BME280;51027;42.162;24.754;2023-01-28T06:01:05;99283.06;;;3.50;90.16
64616;BME280;51027;42.162;24.754;2023-01-28T06:03:30;99281.38;;;3.47;89.85
64616;BME280;51027;42.162;24.754;2023-01-28T06:05:56;99289.38;;;3.35;89.96
64616;BME280;51027;42.162;24.754;2023-01-28T06:08:21;99287.72;;;3.31;90.30
64616;BME280;51027;42.162;24.754;2023-01-28T06:10:47;99291.97;;;3.38;90.46
64616;BME280;51027;42.162;24.754;2023-01-28T06:13:12;99273.94;;;3.24;90.41
64616;BME280;51027;42.162;24.754;2023-01-28T06:15:38;99302.22;;;3.45;90.33
64616;BME280;51027;42.162;24.754;2023-01-28T06:18:03;99313.63;;;3.38;90.56
64616;BME280;51027;42.162;24.754;2023-01-28T06:20:28;99308.28;;;3.46;90.39
64616;BME280;51027;42.162;24.754;2023-01-28T06:22:54;99289.38;;;3.35;90.74
64616;BME280;51027;42.162;24.754;2023-01-28T06:25:19;99312.47;;;3.55;90.65
64616;BME280;51027;42.162;24.754;2023-01-28T06:27:45;99312.56;;;3.50;90.61
64616;BME280;51027;42.162;24.754;2023-01-28T06:30:10;99309.25;;;3.40;89.88
64616;BME280;51027;42.162;24.754;2023-01-28T06:32:36;99323.06;;;3.44;90.61
64616;BME280;51027;42.162;24.754;2023-01-28T06:35:02;99324.56;;;3.57;90.15
64616;BME280;51027;42.162;24.754;2023-01-28T06:37:27;99328.16;;;3.52;90.20
64616;BME280;51027;42.162;24.754;2023-01-28T06:39:53;99315.09;;;3.55;89.75
64616;BME280;51027;42.162;24.754;2023-01-28T06:42:18;99328.22;;;3.47;90.25
64616;BME280;51027;42.162;24.754;2023-01-28T06:44:44;99340.16;;;3.62;90.29
64616;BME280;51027;42.162;24.754;2023-01-28T06:47:09;99349.09;;;3.44;90.45
64616;BME280;51027;42.162;24.754;2023-01-28T06:49:36;99344.69;;;3.49;90.36
64616;BME280;51027;42.162;24.754;2023-01-28T06:52:01;99356.81;;;3.52;90.23
64616;BME280;51027;42.162;24.754;2023-01-28T06:54:27;99359.59;;;3.39;91.27
64616;BME280;51027;42.162;24.754;2023-01-28T06:56:52;99351.59;;;3.52;90.86
64616;BME280;51027;42.162;24.754;2023-01-28T06:59:18;99349.97;;;3.44;91.24
64616;BME280;51027;42.162;24.754;2023-01-28T07:01:43;99327.19;;;3.57;90.69
64616;BME280;51027;42.162;24.754;2023-01-28T07:04:09;99356.63;;;3.62;91.22
64616;BME280;51027;42.162;24.754;2023-01-28T07:06:35;99362.56;;;3.70;91.07
64616;BME280;51027;42.162;24.754;2023-01-28T07:09:00;99361.31;;;3.93;90.48
64616;BME280;51027;42.162;24.754;2023-01-28T07:11:25;99365.00;;;3.81;89.99
64616;BME280;51027;42.162;24.754;2023-01-28T07:13:51;99366.00;;;3.72;90.09
64616;BME280;51027;42.162;24.754;2023-01-28T07:16:16;99368.38;;;3.85;89.81
64616;BME280;51027;42.162;24.754;2023-01-28T07:18:42;99355.47;;;3.80;90.17
64616;BME280;51027;42.162;24.754;2023-01-28T07:21:07;99375.94;;;4.01;89.89
64616;BME280;51027;42.162;24.754;2023-01-28T07:23:32;99376.78;;;4.47;88.18
64616;BME280;51027;42.162;24.754;2023-01-28T07:26:02;99364.44;;;4.56;87.61
64616;BME280;51027;42.162;24.754;2023-01-28T07:28:28;99376.94;;;4.41;87.38
64616;BME280;51027;42.162;24.754;2023-01-28T07:30:53;99387.94;;;4.55;87.41
64616;BME280;51027;42.162;24.754;2023-01-28T07:33:19;99382.22;;;4.36;87.16
64616;BME280;51027;42.162;24.754;2023-01-28T07:35:48;99388.88;;;4.94;85.22
64616;BME280;51027;42.162;24.754;2023-01-28T07:38:14;99368.25;;;4.83;85.13
64616;BME280;51027;42.162;24.754;2023-01-28T07:40:40;99391.75;;;5.20;82.86
64616;BME280;51027;42.162;24.754;2023-01-28T07:43:10;99397.44;;;5.39;82.17
64616;BME280;51027;42.162;24.754;2023-01-28T07:45:35;99406.72;;;5.51;80.39
64616;BME280;51027;42.162;24.754;2023-01-28T07:48:05;99398.03;;;5.50;79.21
64616;BME280;51027;42.162;24.754;2023-01-28T07:50:37;99405.88;;;6.22;76.68
64616;BME280;51027;42.162;24.754;2023-01-28T07:53:08;99392.78;;;5.88;76.93
64616;BME280;51027;42.162;24.754;2023-01-28T07:55:35;99396.78;;;8.34;67.29
64616;BME280;51027;42.162;24.754;2023-01-28T07:58:02;99387.06;;;10.78;59.00
64616;BME280;51027;42.162;24.754;2023-01-28T08:00:36;99397.16;;;10.68;56.28
64616;BME280;51027;42.162;24.754;2023-01-28T08:03:15;99399.63;;;9.01;61.83
64616;BME280;51027;42.162;24.754;2023-01-28T08:05:46;99390.38;;;11.02;56.23
64616;BME280;51027;42.162;24.754;2023-01-28T08:08:12;99400.81;;;12.65;50.39
64616;BME280;51027;42.162;24.754;2023-01-28T08:10:38;99393.03;;;12.29;51.62
64616;BME280;51027;42.162;24.754;2023-01-28T08:13:05;99410.09;;;12.22;50.63
64616;BME280;51027;42.162;24.754;2023-01-28T08:15:31;99416.22;;;12.05;50.07
64616;BME280;51027;42.162;24.754;2023-01-28T08:17:59;99415.38;;;12.22;50.12
64616;BME280;51027;42.162;24.754;2023-01-28T08:20:35;99401.66;;;14.55;44.40
64616;BME280;51027;42.162;24.754;2023-01-28T08:23:16;99414.75;;;12.00;49.17
64616;BME280;51027;42.162;24.754;2023-01-28T08:25:46;99416.81;;;9.55;54.56
64616;BME280;51027;42.162;24.754;2023-01-28T08:28:13;99410.78;;;12.78;49.24
64616;BME280;51027;42.162;24.754;2023-01-28T08:30:39;99411.69;;;14.04;44.08
64616;BME280;51027;42.162;24.754;2023-01-28T08:33:28;99419.06;;;14.59;42.53
64616;BME280;51027;42.162;24.754;2023-01-28T08:36:16;99428.63;;;14.32;42.88
64616;BME280;51027;42.162;24.754;2023-01-28T08:38:40;99406.81;;;12.52;45.46
64616;BME280;51027;42.162;24.754;2023-01-28T08:41:09;99435.53;;;11.13;49.75
64616;BME280;51027;42.162;24.754;2023-01-28T08:43:35;99433.25;;;11.62;49.50
64616;BME280;51027;42.162;24.754;2023-01-28T08:46:00;99434.00;;;12.88;47.27
64616;BME280;51027;42.162;24.754;2023-01-28T08:48:26;99438.22;;;15.21;40.78
64616;BME280;51027;42.162;24.754;2023-01-28T08:50:58;99436.41;;;14.79;40.51
64616;BME280;51027;42.162;24.754;2023-01-28T08:53:27;99439.47;;;15.02;39.51
64616;BME280;51027;42.162;24.754;2023-01-28T08:55:53;99446.59;;;16.12;38.00
64616;BME280;51027;42.162;24.754;2023-01-28T08:58:20;99437.06;;;17.38;36.82
64616;BME280;51027;42.162;24.754;2023-01-28T09:00:46;99440.44;;;17.53;35.10
64616;BME280;51027;42.162;24.754;2023-01-28T09:03:21;99433.38;;;16.77;36.37
64616;BME280;51027;42.162;24.754;2023-01-28T09:05:46;99456.88;;;17.21;35.39
64616;BME280;51027;42.162;24.754;2023-01-28T09:08:16;99435.16;;;17.77;35.48
64616;BME280;51027;42.162;24.754;2023-01-28T09:10:53;99450.06;;;15.44;36.97
64616;BME280;51027;42.162;24.754;2023-01-28T09:13:21;99459.09;;;11.56;46.01
64616;BME280;51027;42.162;24.754;2023-01-28T09:15:48;99458.63;;;12.72;45.21
64616;BME280;51027;42.162;24.754;2023-01-28T09:18:16;99434.84;;;13.38;42.49
64616;BME280;51027;42.162;24.754;2023-01-28T09:20:42;99452.41;;;16.31;37.63
64616;BME280;51027;42.162;24.754;2023-01-28T09:23:08;99454.84;;;16.34;37.46
64616;BME280;51027;42.162;24.754;2023-01-28T09:25:34;99444.41;;;14.49;40.76
64616;BME280;51027;42.162;24.754;2023-01-28T09:28:03;99451.34;;;9.90;49.32
64616;BME280;51027;42.162;24.754;2023-01-28T09:30:29;99450.09;;;11.60;47.13
64616;BME280;51027;42.162;24.754;2023-01-28T09:32:56;99447.38;;;11.61;47.18
64616;BME280;51027;42.162;24.754;2023-01-28T09:35:23;99436.41;;;10.75;49.17
64616;BME280;51027;42.162;24.754;2023-01-28T09:37:48;99446.16;;;9.66;51.64
64616;BME280;51027;42.162;24.754;2023-01-28T09:40:20;99452.28;;;9.21;53.75
64616;BME280;51027;42.162;24.754;2023-01-28T09:45:55;99456.31;;;9.97;51.45
64616;BME280;51027;42.162;24.754;2023-01-28T09:48:27;99457.34;;;10.57;49.53
64616;BME280;51027;42.162;24.754;2023-01-28T09:50:57;99449.91;;;10.47;50.63
64616;BME280;51027;42.162;24.754;2023-01-28T09:53:30;99454.66;;;9.51;52.64
64616;BME280;51027;42.162;24.754;2023-01-28T09:56:02;99442.88;;;8.43;55.83
64616;BME280;51027;42.162;24.754;2023-01-28T09:58:28;99466.47;;;8.16;56.58
64616;BME280;51027;42.162;24.754;2023-01-28T10:17:47;99460.22;;;7.94;59.36
64616;BME280;51027;42.162;24.754;2023-01-28T10:20:32;99457.31;;;7.47;60.34
64616;BME280;51027;42.162;24.754;2023-01-28T10:25:50;99452.72;;;6.96;62.67
64616;BME280;51027;42.162;24.754;2023-01-28T10:28:25;99454.63;;;7.20;62.69
64616;BME280;51027;42.162;24.754;2023-01-28T10:30:52;99436.25;;;6.91;61.46
64616;BME280;51027;42.162;24.754;2023-01-28T10:33:30;99454.97;;;7.38;60.90
64616;BME280;51027;42.162;24.754;2023-01-28T10:36:01;99448.19;;;7.31;61.03
64616;BME280;51027;42.162;24.754;2023-01-28T10:38:28;99449.94;;;7.60;60.50
64616;BME280;51027;42.162;24.754;2023-01-28T10:41:00;99463.38;;;8.03;60.11
64616;BME280;51027;42.162;24.754;2023-01-28T10:43:33;99459.00;;;8.82;57.61
64616;BME280;51027;42.162;24.754;2023-01-28T10:51:38;99450.72;;;12.54;47.24
64616;BME280;51027;42.162;24.754;2023-01-28T10:54:23;99453.19;;;12.23;46.93
64616;BME280;51027;42.162;24.754;2023-01-28T10:56:54;99435.78;;;12.88;45.48
64616;BME280;51027;42.162;24.754;2023-01-28T10:59:27;99426.63;;;10.97;49.78
64616;BME280;51027;42.162;24.754;2023-01-28T11:02:01;99451.25;;;12.44;47.24
64616;BME280;51027;42.162;24.754;2023-01-28T11:04:34;99444.94;;;13.14;45.49
64616;BME280;51027;42.162;24.754;2023-01-28T11:07:05;99448.03;;;11.66;48.63
64616;BME280;51027;42.162;24.754;2023-01-28T11:09:43;99441.63;;;12.25;45.91
64616;BME280;51027;42.162;24.754;2023-01-28T11:12:26;99443.59;;;13.71;44.79
64616;BME280;51027;42.162;24.754;2023-01-28T11:15:01;99448.53;;;14.69;41.46
64616;BME280;51027;42.162;24.754;2023-01-28T11:17:30;99439.25;;;14.62;41.09
64616;BME280;51027;42.162;24.754;2023-01-28T11:19:59;99445.88;;;13.77;42.90
64616;BME280;51027;42.162;24.754;2023-01-28T11:22:35;99420.00;;;14.28;42.47
64616;BME280;51027;42.162;24.754;2023-01-28T11:25:12;99442.19;;;14.72;42.67
64616;BME280;51027;42.162;24.754;2023-01-28T11:27:45;99438.44;;;15.33;41.06
64616;BME280;51027;42.162;24.754;2023-01-28T11:32:51;99437.31;;;13.88;44.58
64616;BME280;51027;42.162;24.754;2023-01-28T11:35:26;99434.59;;;13.26;45.21
64616;BME280;51027;42.162;24.754;2023-01-28T11:37:57;99439.47;;;13.66;43.88
64616;BME280;51027;42.162;24.754;2023-01-28T11:40:23;99435.16;;;14.70;42.58
64616;BME280;51027;42.162;24.754;2023-01-28T11:42:50;99442.03;;;15.17;42.16
64616;BME280;51027;42.162;24.754;2023-01-28T11:45:22;99458.25;;;12.45;45.24
64616;BME280;51027;42.162;24.754;2023-01-28T11:48:14;99453.72;;;11.19;49.19
64616;BME280;51027;42.162;24.754;2023-01-28T11:51:00;99446.81;;;10.78;50.28
64616;BME280;51027;42.162;24.754;2023-01-28T11:53:49;99455.97;;;9.63;53.16
64616;BME280;51027;42.162;24.754;2023-01-28T11:57:01;99452.69;;;9.34;54.36
64616;BME280;51027;42.162;24.754;2023-01-28T12:01:57;99461.94;;;8.48;57.24
64616;BME280;51027;42.162;24.754;2023-01-28T12:04:52;99460.38;;;8.67;57.39
64616;BME280;51027;42.162;24.754;2023-01-28T12:07:44;99463.66;;;7.68;61.43
64616;BME280;51027;42.162;24.754;2023-01-28T12:10:40;99459.59;;;7.30;63.52
64616;BME280;51027;42.162;24.754;2023-01-28T12:13:26;99468.41;;;7.55;63.38
64616;BME280;51027;42.162;24.754;2023-01-28T12:24:22;99478.63;;;6.40;67.98
64616;BME280;51027;42.162;24.754;2023-01-28T12:37:44;99489.25;;;6.35;70.38
64616;BME280;51027;42.162;24.754;2023-01-28T12:40:47;99477.06;;;6.33;71.56
64616;BME280;51027;42.162;24.754;2023-01-28T12:46:14;99493.28;;;6.12;73.30
64616;BME280;51027;42.162;24.754;2023-01-28T12:48:46;99505.22;;;5.86;75.50
64616;BME280;51027;42.162;24.754;2023-01-28T12:51:17;99482.97;;;5.68;76.31
64616;BME280;51027;42.162;24.754;2023-01-28T12:54:03;99504.81;;;6.04;75.72
64616;BME280;51027;42.162;24.754;2023-01-28T12:56:44;99480.22;;;6.12;75.18
64616;BME280;51027;42.162;24.754;2023-01-28T12:59:33;99504.88;;;6.37;74.85
64616;BME280;51027;42.162;24.754;2023-01-28T13:04:55;99514.63;;;6.30;75.36
64616;BME280;51027;42.162;24.754;2023-01-28T13:07:44;99517.41;;;5.86;77.68
64616;BME280;51027;42.162;24.754;2023-01-28T13:10:24;99511.13;;;6.31;74.75
64616;BME280;51027;42.162;24.754;2023-01-28T13:12:52;99522.69;;;6.21;76.15
64616;BME280;51027;42.162;24.754;2023-01-28T13:15:18;99501.19;;;5.33;79.73
64616;BME280;51027;42.162;24.754;2023-01-28T13:18:02;99527.28;;;5.31;81.38
64616;BME280;51027;42.162;24.754;2023-01-28T13:23:18;99528.72;;;5.47;80.16
64616;BME280;51027;42.162;24.754;2023-01-28T13:25:53;99531.66;;;5.32;82.16
64616;BME280;51027;42.162;24.754;2023-01-28T13:31:00;99538.31;;;5.04;82.09
64616;BME280;51027;42.162;24.754;2023-01-28T13:33:35;99537.66;;;5.36;83.16
64616;BME280;51027;42.162;24.754;2023-01-28T13:41:43;99543.78;;;4.90;86.87
64616;BME280;51027;42.162;24.754;2023-01-28T13:52:07;99554.63;;;5.15;84.36
64616;BME280;51027;42.162;24.754;2023-01-28T13:54:42;99563.59;;;5.02;82.97
64616;BME280;51027;42.162;24.754;2023-01-28T14:00:42;99562.44;;;4.67;86.61
64616;BME280;51027;42.162;24.754;2023-01-28T14:16:28;99579.66;;;4.25;91.19
64616;BME280;51027;42.162;24.754;2023-01-28T14:18:58;99581.72;;;4.58;90.40
64616;BME280;51027;42.162;24.754;2023-01-28T14:21:26;99576.13;;;4.30;91.38
64616;BME280;51027;42.162;24.754;2023-01-28T14:23:54;99564.09;;;4.22;90.82
64616;BME280;51027;42.162;24.754;2023-01-28T14:31:46;99583.28;;;4.15;93.68
64616;BME280;51027;42.162;24.754;2023-01-28T14:34:31;99582.75;;;4.48;92.95
64616;BME280;51027;42.162;24.754;2023-01-28T14:37:07;99593.25;;;4.45;92.61
64616;BME280;51027;42.162;24.754;2023-01-28T14:40:15;99597.69;;;4.40;92.92
64616;BME280;51027;42.162;24.754;2023-01-28T14:42:44;99594.72;;;4.63;92.24
64616;BME280;51027;42.162;24.754;2023-01-28T14:51:00;99612.69;;;4.78;90.14
64616;BME280;51027;42.162;24.754;2023-01-28T14:58:56;99614.63;;;4.67;88.03
64616;BME280;51027;42.162;24.754;2023-01-28T15:01:27;99613.88;;;4.59;88.32
64616;BME280;51027;42.162;24.754;2023-01-28T15:03:53;99620.34;;;4.89;87.21
64616;BME280;51027;42.162;24.754;2023-01-28T15:06:20;99620.78;;;4.63;86.94
64616;BME280;51027;42.162;24.754;2023-01-28T15:08:49;99610.47;;;4.55;84.93
64616;BME280;51027;42.162;24.754;2023-01-28T15:11:19;99624.41;;;4.54;85.00
64616;BME280;51027;42.162;24.754;2023-01-28T15:13:47;99621.88;;;4.48;84.40
64616;BME280;51027;42.162;24.754;2023-01-28T15:16:20;99629.31;;;4.73;83.60
64616;BME280;51027;42.162;24.754;2023-01-28T15:18:47;99610.19;;;4.74;81.86
64616;BME280;51027;42.162;24.754;2023-01-28T15:21:19;99639.59;;;4.82;82.16
64616;BME280;51027;42.162;24.754;2023-01-28T15:23:50;99635.72;;;5.06;81.09
64616;BME280;51027;42.162;24.754;2023-01-28T15:26:22;99614.38;;;4.82;80.90